Time;durP1;ratioP1;P1;durP2;ratioP2;P2;SDS_P1;SDS_P2;PMS_P1;PMS_P2;Temp;Humidity;BMP_temperature;BMP_pressure;BME280_temperature;BME280_humidity;BME280_pressure;Samples;Min_cycle;Max_cycle;Signal;HPM_P1;HPM_P2
2023/04/27 00:00:48;;;;;;;0.70;0.52;;;;;;;7.68;75.31;101127.28;5084537;28;20028;-65
2023/04/27 00:03:14;;;;;;;1.15;0.63;;;;;;;7.67;75.77;101127.59;5085407;28;20374;-66
2023/04/27 00:05:40;;;;;;;0.50;0.50;;;;;;;7.56;76.37;101127.19;5053284;28;20560;-66
2023/04/27 00:08:06;;;;;;;0.68;0.50;;;;;;;7.58;75.95;101135.69;5064284;28;20119;-66
2023/04/27 00:10:32;;;;;;;1.25;0.90;;;;;;;7.75;74.85;101118.72;5087574;28;20028;-66
2023/04/27 00:12:57;;;;;;;0.57;0.57;;;;;;;7.59;76.11;101125.78;5079215;28;20461;-65
2023/04/27 00:15:23;;;;;;;0.43;0.43;;;;;;;7.50;76.52;101127.69;5067390;28;20031;-66
2023/04/27 00:17:48;;;;;;;0.30;0.30;;;;;;;7.55;76.33;101122.16;5083202;28;20553;-66
2023/04/27 00:20:14;;;;;;;2.40;0.60;;;;;;;7.65;75.94;101132.50;5080474;28;20032;-66
2023/04/27 00:22:40;;;;;;;1.65;0.65;;;;;;;7.64;75.70;101123.69;5079371;28;20033;-65
2023/04/27 00:25:06;;;;;;;0.30;0.30;;;;;;;7.65;75.90;101125.25;5073820;28;20025;-65
2023/04/27 00:27:32;;;;;;;1.27;0.60;;;;;;;7.47;76.34;101121.06;5078499;28;20035;-65
2023/04/27 00:29:57;;;;;;;0.20;0.20;;;;;;;7.52;76.27;101117.44;5069066;28;20024;-65
2023/04/27 00:32:22;;;;;;;0.70;0.70;;;;;;;7.53;75.55;101122.47;5086691;28;20032;-65
2023/04/27 00:34:48;;;;;;;2.25;0.52;;;;;;;7.42;76.30;101107.88;5065171;28;20033;-65
2023/04/27 00:37:13;;;;;;;0.77;0.57;;;;;;;7.47;76.83;101122.97;5080629;28;20090;-65
2023/04/27 00:39:39;;;;;;;0.57;0.57;;;;;;;7.59;75.86;101117.72;5070941;28;20024;-66
2023/04/27 00:42:05;;;;;;;0.40;0.40;;;;;;;7.53;75.70;101110.97;5066017;28;20082;-67
2023/04/27 00:44:30;;;;;;;1.77;1.02;;;;;;;7.48;76.24;101114.63;5059120;28;20047;-66
2023/04/27 00:46:57;;;;;;;0.50;0.50;;;;;;;7.53;75.82;101117.09;5069915;28;20055;-66
2023/04/27 00:49:23;;;;;;;0.60;0.60;;;;;;;7.46;76.19;101124.06;5090165;28;20063;-66
2023/04/27 00:51:48;;;;;;;0.45;0.45;;;;;;;7.34;76.47;101124.75;5071915;28;20063;-66
2023/04/27 00:54:19;;;;;;;0.77;0.77;;;;;;;7.35;76.71;101117.50;5070279;28;20029;-65
2023/04/27 00:56:47;;;;;;;;;;;;;;;7.30;77.27;101116.56;5058188;28;20028;-66
2023/04/27 00:59:17;;;;;;;0.40;0.40;;;;;;;7.42;76.82;101123.13;5065857;28;19911;-66
2023/04/27 01:01:45;;;;;;;0.40;0.40;;;;;;;7.34;77.06;101124.75;5078866;28;20036;-65
2023/04/27 01:04:11;;;;;;;0.70;0.60;;;;;;;7.28;77.32;101121.47;5087285;28;20055;-66
2023/04/27 01:06:38;;;;;;;1.45;1.23;;;;;;;7.32;76.99;101127.75;5075885;28;20547;-65
2023/04/27 01:09:05;;;;;;;0.90;0.77;;;;;;;7.26;77.61;101126.34;5084184;28;20033;-65
2023/04/27 01:11:32;;;;;;;0.43;0.43;;;;;;;7.28;77.26;101126.03;5089813;28;20604;-66
2023/04/27 01:14:03;;;;;;;2.00;1.13;;;;;;;7.22;77.81;101128.09;5071311;28;20754;-66
2023/04/27 01:16:29;;;;;;;1.30;0.50;;;;;;;7.26;77.08;101131.72;5065803;28;20088;-64
2023/04/27 01:18:55;;;;;;;2.60;0.60;;;;;;;7.25;77.75;101127.47;5088883;28;20127;-67
2023/04/27 01:21:22;;;;;;;1.10;0.77;;;;;;;7.29;77.26;101135.66;5067032;28;20055;-66
2023/04/27 01:23:48;;;;;;;1.23;1.15;;;;;;;7.32;77.02;101136.91;5069336;28;20036;-66
2023/04/27 01:26:15;;;;;;;0.40;0.40;;;;;;;7.24;77.17;101141.16;5067115;28;20047;-65
2023/04/27 01:28:41;;;;;;;0.63;0.63;;;;;;;7.23;77.87;101142.28;5085887;28;20032;-66
2023/04/27 01:31:07;;;;;;;0.60;0.60;;;;;;;7.29;77.90;101149.03;5073506;28;20058;-66
2023/04/27 01:33:32;;;;;;;1.05;0.63;;;;;;;7.26;77.36;101137.06;5062543;28;20032;-66
2023/04/27 01:35:58;;;;;;;0.80;0.80;;;;;;;7.23;77.66;101134.25;5075307;28;20056;-65
2023/04/27 01:38:27;;;;;;;3.33;0.60;;;;;;;7.22;77.44;101141.50;5073000;28;20115;-66
2023/04/27 01:40:54;;;;;;;1.38;1.15;;;;;;;7.15;77.98;101146.56;5086995;28;20138;-65
2023/04/27 01:43:20;;;;;;;0.50;0.50;;;;;;;7.07;78.21;101144.69;5068310;28;20108;-66
2023/04/27 01:45:45;;;;;;;0.50;0.50;;;;;;;6.94;78.83;101145.66;5068732;28;20587;-66
2023/04/27 01:48:11;;;;;;;0.57;0.57;;;;;;;6.94;79.25;101136.84;5064481;28;20097;-66
2023/04/27 01:50:36;;;;;;;0.40;0.40;;;;;;;7.01;78.20;101151.31;5088275;28;20029;-67
2023/04/27 01:53:02;;;;;;;0.30;0.30;;;;;;;6.95;78.46;101149.13;5081380;28;20476;-65
2023/04/27 01:55:28;;;;;;;0.63;0.55;;;;;;;6.84;79.39;101148.66;5084394;28;20473;-67
2023/04/27 01:57:53;;;;;;;1.00;0.88;;;;;;;6.88;79.13;101152.28;5065316;28;20048;-65
2023/04/27 02:00:18;;;;;;;2.17;0.70;;;;;;;6.91;78.44;101148.97;5054010;28;20115;-65
2023/04/27 02:02:49;;;;;;;0.95;0.50;;;;;;;6.92;78.89;101160.47;5089366;28;20581;-67
2023/04/27 02:05:15;;;;;;;0.45;0.32;;;;;;;6.80;79.21;101163.00;5067714;28;20036;-66
2023/04/27 02:07:41;;;;;;;0.68;0.68;;;;;;;6.79;79.92;101170.25;5047891;28;20025;-67
2023/04/27 02:10:07;;;;;;;0.80;0.60;;;;;;;6.77;79.79;101169.78;5070272;28;20405;-67
2023/04/27 02:12:32;;;;;;;0.40;0.40;;;;;;;6.79;80.23;101166.78;5058933;28;20039;-66
2023/04/27 02:14:58;;;;;;;1.02;0.82;;;;;;;6.74;80.25;101177.63;5088469;28;20607;-66
2023/04/27 02:17:23;;;;;;;1.52;0.70;;;;;;;6.79;79.93;101178.28;5064439;28;20031;-66
2023/04/27 02:19:49;;;;;;;0.60;0.60;;;;;;;6.83;80.11;101179.19;5090338;28;20508;-66
2023/04/27 02:22:15;;;;;;;1.75;1.10;;;;;;;6.78;80.52;101174.03;5051931;28;20036;-66
2023/04/27 02:24:40;;;;;;;0.70;0.70;;;;;;;6.73;80.93;101187.56;5058200;28;20115;-66
2023/04/27 02:27:06;;;;;;;0.50;0.45;;;;;;;6.88;81.17;101195.13;5056963;28;20028;-66
2023/04/27 02:29:32;;;;;;;5.90;0.88;;;;;;;6.90;81.16;101200.16;5081200;28;20070;-66
2023/04/27 02:31:57;;;;;;;0.50;0.50;;;;;;;7.00;80.91;101195.28;5085409;28;20037;-66
2023/04/27 02:34:22;;;;;;;0.57;0.57;;;;;;;7.06;81.01;101193.22;5067657;28;20106;-66
2023/04/27 02:36:48;;;;;;;2.42;1.08;;;;;;;7.11;81.27;101198.38;5071545;28;20408;-66
2023/04/27 02:39:13;;;;;;;0.60;0.55;;;;;;;7.17;81.23;101194.44;5071523;28;20040;-66
2023/04/27 02:41:39;;;;;;;1.85;0.90;;;;;;;7.21;80.85;101196.19;5084442;28;20052;-66
2023/04/27 02:44:04;;;;;;;0.50;0.50;;;;;;;7.26;80.14;101208.59;5068350;28;20035;-66
2023/04/27 02:46:30;;;;;;;0.57;0.40;;;;;;;7.27;80.69;101196.78;5052619;28;20033;-66
2023/04/27 02:48:55;;;;;;;0.90;0.73;;;;;;;7.29;80.61;101195.38;5050619;28;20044;-66
2023/04/27 02:51:22;;;;;;;0.85;0.60;;;;;;;7.28;81.52;101196.47;5090241;28;20063;-66
2023/04/27 02:53:48;;;;;;;0.55;0.55;;;;;;;7.29;81.32;101187.34;5072422;28;20113;-66
2023/04/27 02:56:13;;;;;;;7.60;0.70;;;;;;;7.32;81.26;101182.44;5065939;28;20123;-66
2023/04/27 02:58:39;;;;;;;0.77;0.77;;;;;;;7.35;81.02;101177.22;5065989;28;20028;-66
2023/04/27 03:01:04;;;;;;;2.55;0.98;;;;;;;7.36;81.69;101178.00;5078878;28;20513;-66
2023/04/27 03:03:30;;;;;;;0.60;0.60;;;;;;;7.43;80.83;101186.34;5065596;28;20116;-66
2023/04/27 03:05:58;;;;;;;0.55;0.45;;;;;;;7.46;80.87;101180.34;5088640;28;20463;-66
2023/04/27 03:08:24;;;;;;;1.98;0.70;;;;;;;7.54;80.66;101182.19;5082855;28;20034;-66
2023/04/27 03:10:49;;;;;;;0.50;0.50;;;;;;;7.50;81.15;101181.28;5069587;28;20491;-66
2023/04/27 03:13:15;;;;;;;0.60;0.60;;;;;;;7.47;80.85;101179.25;5090810;28;20067;-66
2023/04/27 03:15:42;;;;;;;0.63;0.63;;;;;;;7.54;80.56;101183.00;5066253;28;20035;-66
2023/04/27 03:18:07;;;;;;;0.82;0.60;;;;;;;7.57;80.64;101182.34;5068647;28;20044;-66
2023/04/27 03:20:33;;;;;;;3.35;0.93;;;;;;;7.51;80.93;101185.53;5067895;28;20147;-66
2023/04/27 03:22:58;;;;;;;0.43;0.43;;;;;;;7.51;81.50;101183.63;5064158;28;20032;-66
2023/04/27 03:25:24;;;;;;;1.35;0.80;;;;;;;7.56;81.01;101188.81;5082584;28;20063;-66
2023/04/27 03:27:50;;;;;;;0.35;0.35;;;;;;;7.47;80.99;101192.63;5069304;28;20374;-66
2023/04/27 03:30:15;;;;;;;1.95;0.70;;;;;;;7.37;81.34;101190.31;5065734;28;20566;-66
2023/04/27 03:32:41;;;;;;;1.75;1.13;;;;;;;7.34;81.41;101194.41;5070172;28;20111;-66
2023/04/27 03:35:09;;;;;;;0.70;0.70;;;;;;;7.32;80.92;101186.69;5076904;28;20069;-66
2023/04/27 03:37:35;;;;;;;2.17;0.88;;;;;;;7.26;81.27;101181.81;5064439;28;20035;-65
2023/04/27 03:40:00;;;;;;;0.98;0.57;;;;;;;7.06;81.65;101188.66;5046055;28;20472;-66
2023/04/27 03:42:26;;;;;;;1.13;1.02;;;;;;;6.98;82.07;101186.75;5046146;28;20027;-66
2023/04/27 03:44:51;;;;;;;0.30;0.30;;;;;;;7.00;82.20;101189.13;5083686;28;20681;-66
2023/04/27 03:47:17;;;;;;;0.40;0.40;;;;;;;7.03;81.92;101189.25;5072126;28;20427;-66
2023/04/27 03:49:42;;;;;;;0.57;0.57;;;;;;;7.07;81.25;101190.22;5069938;28;20032;-66
2023/04/27 03:52:11;;;;;;;1.33;0.80;;;;;;;6.95;81.65;101192.75;5047848;28;20077;-67
2023/04/27 03:54:37;;;;;;;0.75;0.75;;;;;;;6.91;81.59;101196.38;5060628;28;20492;-66
2023/04/27 03:57:03;;;;;;;9.23;1.02;;;;;;;6.78;81.61;101200.78;5053148;28;20028;-65
2023/04/27 03:59:29;;;;;;;1.77;0.50;;;;;;;6.70;81.97;101209.59;5055589;28;20036;-66
2023/04/27 04:01:57;;;;;;;0.75;0.75;;;;;;;6.69;82.24;101201.88;5086421;28;20032;-66
2023/04/27 04:04:22;;;;;;;1.73;1.10;;;;;;;6.63;82.41;101206.59;5085006;28;20409;-66
2023/04/27 04:06:50;;;;;;;1.60;1.08;;;;;;;6.58;82.58;101201.41;5057593;28;20036;-66
2023/04/27 04:09:16;;;;;;;0.57;0.57;;;;;;;6.57;82.56;101197.16;5068359;28;20043;-66
2023/04/27 04:11:42;;;;;;;1.13;1.00;;;;;;;6.58;82.98;101208.66;5068105;28;20184;-66
2023/04/27 04:14:10;;;;;;;0.82;0.60;;;;;;;6.53;82.79;101206.91;5056816;28;20119;-66
2023/04/27 04:16:36;;;;;;;4.68;1.23;;;;;;;6.51;82.59;101208.31;5067808;28;20391;-66
2023/04/27 04:19:01;;;;;;;1.98;0.98;;;;;;;6.57;82.91;101199.84;5064706;28;20502;-66
2023/04/27 04:21:26;;;;;;;3.25;1.02;;;;;;;6.55;82.88;101218.09;5063405;28;20155;-66
2023/04/27 04:23:52;;;;;;;0.82;0.80;;;;;;;6.59;82.86;101212.91;5057683;28;20027;-66
2023/04/27 04:26:19;;;;;;;2.40;1.42;;;;;;;6.68;82.64;101214.47;5064431;28;20028;-66
2023/04/27 04:28:45;;;;;;;0.70;0.70;;;;;;;6.64;82.86;101218.88;5046730;28;20028;-66
2023/04/27 04:31:10;;;;;;;0.98;0.98;;;;;;;6.61;82.72;101216.03;5079911;28;20039;-66
2023/04/27 04:33:36;;;;;;;1.35;1.15;;;;;;;6.58;83.37;101222.81;5052989;28;20064;-66
2023/04/27 04:36:03;;;;;;;1.10;0.75;;;;;;;6.55;84.06;101225.31;5060127;28;20106;-66
2023/04/27 04:38:29;;;;;;;2.75;1.42;;;;;;;6.56;83.48;101214.31;5072011;28;20617;-66
2023/04/27 04:40:54;;;;;;;0.70;0.60;;;;;;;6.64;84.02;101216.19;5057622;28;20115;-66
2023/04/27 04:43:20;;;;;;;2.13;1.48;;;;;;;6.75;83.23;101220.16;5080379;28;20542;-66
2023/04/27 04:45:46;;;;;;;3.00;0.73;;;;;;;6.81;83.38;101216.22;5049841;28;20039;-66
2023/04/27 04:48:14;;;;;;;1.23;1.13;;;;;;;6.95;83.15;101222.19;5066097;28;20023;-66
2023/04/27 04:50:59;;;;;;;4.10;1.40;;;;;;;7.00;83.44;101219.38;5068753;28;20063;-66
2023/04/27 04:53:25;;;;;;;0.43;0.43;;;;;;;7.13;83.57;101234.47;5010235;28;20519;-66
2023/04/27 04:55:51;;;;;;;1.27;0.70;;;;;;;7.29;82.54;101232.88;5036231;28;20049;-65
2023/04/27 04:58:16;;;;;;;1.10;0.82;;;;;;;7.20;82.87;101234.75;5010870;28;20103;-65
2023/04/27 05:00:42;;;;;;;0.52;0.52;;;;;;;7.15;82.65;101245.66;5002309;28;20041;-65
2023/04/27 05:03:07;;;;;;;2.05;0.70;;;;;;;7.09;83.69;101244.22;5027009;28;20042;-65
2023/04/27 05:05:33;;;;;;;0.85;0.85;;;;;;;7.21;83.25;101248.94;5015829;28;20129;-65
2023/04/27 05:07:58;;;;;;;1.55;0.43;;;;;;;7.26;83.19;101252.25;5022280;28;20037;-64
2023/04/27 05:10:24;;;;;;;2.60;1.73;;;;;;;7.39;83.14;101247.03;5009615;28;20528;-64
2023/04/27 05:12:49;;;;;;;0.70;0.70;;;;;;;7.47;82.35;101251.59;5012823;28;20045;-64
2023/04/27 05:15:35;;;;;;;0.73;0.73;;;;;;;7.68;81.50;101241.75;5030259;28;20041;-65
2023/04/27 05:18:00;;;;;;;1.45;0.75;;;;;;;7.61;81.63;101252.16;4967373;28;20042;-65
2023/04/27 05:20:26;;;;;;;4.22;1.23;;;;;;;7.72;80.87;101243.47;4970528;28;20121;-64
2023/04/27 05:22:54;;;;;;;0.77;0.77;;;;;;;7.63;81.71;101244.59;4965852;28;20178;-65
2023/04/27 05:25:20;;;;;;;2.42;1.00;;;;;;;7.77;81.36;101255.91;4951991;28;20119;-65
2023/04/27 05:27:45;;;;;;;1.42;1.27;;;;;;;7.99;80.35;101247.63;4971453;28;20081;-65
2023/04/27 05:30:11;;;;;;;1.30;1.17;;;;;;;8.02;80.37;101246.97;4986569;28;20151;-65
2023/04/27 05:32:37;;;;;;;2.53;0.98;;;;;;;7.94;80.39;101242.44;5021256;28;20044;-65
2023/04/27 05:35:04;;;;;;;0.90;0.90;;;;;;;7.99;80.35;101239.59;5014859;28;20093;-65
2023/04/27 05:37:29;;;;;;;1.23;1.13;;;;;;;7.98;80.32;101241.47;4993062;28;20049;-65
2023/04/27 05:39:54;;;;;;;2.42;1.30;;;;;;;7.95;80.49;101262.78;5017949;28;20045;-65
2023/04/27 05:42:20;;;;;;;1.45;0.60;;;;;;;8.00;80.87;101251.88;5018381;28;20125;-65
2023/04/27 05:44:48;;;;;;;1.50;0.85;;;;;;;8.10;80.75;101254.19;4999117;28;20040;-65
2023/04/27 05:47:14;;;;;;;2.03;0.60;;;;;;;8.29;80.83;101256.50;4998964;28;20057;-65
2023/04/27 05:49:39;;;;;;;1.38;0.95;;;;;;;8.36;80.16;101257.56;5018834;28;20045;-65
2023/04/27 05:52:05;;;;;;;0.95;0.85;;;;;;;8.54;79.31;101253.66;5012158;28;20100;-64
2023/04/27 05:54:30;;;;;;;1.85;1.05;;;;;;;8.64;78.94;101253.28;5032070;28;20044;-64
2023/04/27 05:56:56;;;;;;;1.27;0.60;;;;;;;8.79;79.25;101257.25;5061145;28;20024;-64
2023/04/27 05:59:21;;;;;;;0.82;0.80;;;;;;;9.12;77.51;101262.72;5085714;28;20040;-64
2023/04/27 06:01:46;;;;;;;2.08;1.38;;;;;;;9.36;77.46;101268.16;5062458;28;20036;-65
2023/04/27 06:04:12;;;;;;;1.40;0.90;;;;;;;9.69;75.60;101271.63;5054948;28;20039;-65
2023/04/27 06:06:37;;;;;;;1.75;0.65;;;;;;;9.72;74.77;101263.66;5077944;28;20043;-64
2023/04/27 06:09:06;;;;;;;2.30;1.00;;;;;;;9.79;74.28;101271.19;5068818;28;20032;-65
2023/04/27 06:11:31;;;;;;;0.60;0.60;;;;;;;9.97;73.31;101267.16;5054297;28;20036;-65
2023/04/27 06:13:57;;;;;;;1.27;0.90;;;;;;;10.10;72.58;101274.19;5056786;28;20511;-65
2023/04/27 06:16:22;;;;;;;0.63;0.63;;;;;;;10.12;72.40;101271.16;5082414;28;20036;-63
2023/04/27 06:18:49;;;;;;;0.77;0.65;;;;;;;10.31;72.14;101271.38;5077357;28;20040;-64
2023/04/27 06:21:15;;;;;;;5.57;1.60;;;;;;;10.58;70.89;101276.06;5079819;28;20031;-64
2023/04/27 06:23:40;;;;;;;0.38;0.38;;;;;;;10.66;70.10;101273.25;5079920;28;20040;-64
2023/04/27 06:26:06;;;;;;;2.00;1.30;;;;;;;10.82;70.52;101267.91;5078443;28;20381;-64
2023/04/27 06:28:31;;;;;;;1.10;1.00;;;;;;;11.16;67.71;101274.66;5083812;28;20040;-64
2023/04/27 06:30:57;;;;;;;0.75;0.65;;;;;;;10.97;68.14;101288.00;5061473;28;20057;-64
2023/04/27 06:33:22;;;;;;;2.92;1.17;;;;;;;11.17;67.07;101287.81;5057288;28;20033;-63
2023/04/27 06:35:50;;;;;;;0.40;0.40;;;;;;;11.39;65.20;101283.78;5058908;28;20040;-64
2023/04/27 06:38:15;;;;;;;2.30;1.00;;;;;;;11.27;65.73;101286.53;5061543;28;20055;-63
2023/04/27 06:40:41;;;;;;;0.98;0.73;;;;;;;11.52;65.29;101296.06;5083682;28;20067;-64
2023/04/27 06:43:06;;;;;;;0.63;0.63;;;;;;;11.62;66.00;101292.88;5078628;28;20468;-64
2023/04/27 06:45:32;;;;;;;1.95;0.85;;;;;;;11.81;64.92;101284.94;5055847;28;20033;-64
2023/04/27 06:47:57;;;;;;;0.50;0.50;;;;;;;11.87;64.31;101294.34;5066609;28;20094;-64
2023/04/27 06:50:23;;;;;;;1.45;0.80;;;;;;;12.09;63.49;101295.66;5057091;28;20115;-66
2023/04/27 06:52:48;;;;;;;1.65;0.43;;;;;;;12.21;61.60;101300.97;5083347;28;20029;-63
2023/04/27 06:55:14;;;;;;;0.63;0.60;;;;;;;12.22;60.85;101300.63;5087065;28;20051;-64
2023/04/27 06:57:39;;;;;;;1.63;1.02;;;;;;;12.27;60.18;101299.56;5075287;28;20036;-64
2023/04/27 07:00:05;;;;;;;4.00;0.95;;;;;;;12.25;59.75;101299.91;5062997;28;20115;-64
2023/04/27 07:02:31;;;;;;;0.30;0.30;;;;;;;12.32;60.65;101300.09;5065680;28;20028;-64
2023/04/27 07:05:04;;;;;;;0.47;0.35;;;;;;;12.37;59.49;101296.31;5077772;28;20024;-64
2023/04/27 07:07:29;;;;;;;0.70;0.70;;;;;;;12.62;58.64;101303.88;5074700;28;20495;-64
2023/04/27 07:09:55;;;;;;;0.28;0.28;;;;;;;12.72;58.26;101299.06;5086126;28;20028;-63
2023/04/27 07:12:20;;;;;;;1.00;0.93;;;;;;;12.93;57.62;101303.00;5076977;28;20040;-65
2023/04/27 07:14:46;;;;;;;0.80;0.55;;;;;;;12.96;57.77;101298.81;5056463;28;20036;-64
2023/04/27 07:17:11;;;;;;;0.52;0.40;;;;;;;13.06;57.99;101296.38;5078618;28;20028;-63
2023/04/27 07:19:36;;;;;;;0.30;0.30;;;;;;;13.15;56.76;101294.22;5087430;28;20027;-64
2023/04/27 07:22:02;;;;;;;0.60;0.38;;;;;;;13.31;56.53;101297.66;5064783;28;20056;-65
2023/04/27 07:24:28;;;;;;;1.30;0.60;;;;;;;13.33;56.57;101303.50;5080284;28;20028;-64
2023/04/27 07:26:53;;;;;;;4.78;0.52;;;;;;;13.52;56.49;101310.78;5082448;28;20565;-64
2023/04/27 07:29:19;;;;;;;0.55;0.40;;;;;;;13.76;55.68;101313.19;5070277;28;20040;-64
2023/04/27 07:31:45;;;;;;;0.20;0.20;;;;;;;13.77;54.59;101320.16;5069707;28;20186;-64
2023/04/27 07:34:10;;;;;;;0.10;0.10;;;;;;;13.94;52.83;101324.31;5059875;28;20082;-64
2023/04/27 07:36:36;;;;;;;0.32;0.32;;;;;;;13.90;52.83;101323.50;5069868;28;20122;-63
2023/04/27 07:39:02;;;;;;;0.82;0.22;;;;;;;14.13;52.32;101335.09;5075062;28;20107;-64
2023/04/27 07:41:29;;;;;;;1.33;0.40;;;;;;;14.13;52.40;101332.41;5070897;28;20343;-63
2023/04/27 07:43:56;;;;;;;0.30;0.30;;;;;;;14.18;53.14;101330.16;5051851;28;20025;-63
2023/04/27 07:46:22;;;;;;;0.40;0.40;;;;;;;14.36;52.73;101328.53;5082288;28;20082;-64
2023/04/27 07:48:49;;;;;;;0.35;0.35;;;;;;;14.54;51.60;101349.75;5054714;28;20028;-64
2023/04/27 07:51:16;;;;;;;0.80;0.22;;;;;;;14.39;51.81;101335.16;5055987;28;20438;-64
2023/04/27 07:53:42;;;;;;;0.47;0.47;;;;;;;14.14;51.74;101342.88;5068586;28;20624;-66
2023/04/27 07:56:08;;;;;;;0.70;0.30;;;;;;;13.79;52.05;101342.25;5076792;28;20079;-65
2023/04/27 07:58:34;;;;;;;0.17;0.17;;;;;;;13.67;52.66;101341.59;5070122;28;20107;-65
2023/04/27 08:01:00;;;;;;;0.80;0.52;;;;;;;13.64;52.14;101336.91;5067959;28;20024;-65
2023/04/27 08:03:25;;;;;;;0.65;0.30;;;;;;;13.47;52.63;101330.03;5085046;28;20063;-65
2023/04/27 08:05:51;;;;;;;2.72;1.38;;;;;;;13.45;53.17;101329.59;5071343;28;20115;-64
2023/04/27 08:08:16;;;;;;;1.85;1.42;;;;;;;13.37;53.29;101327.91;5068513;28;20533;-65
2023/04/27 08:10:42;;;;;;;0.35;0.35;;;;;;;13.33;53.29;101335.16;5073906;28;20480;-65
2023/04/27 08:13:08;;;;;;;0.47;0.38;;;;;;;13.05;53.21;101335.34;5051583;28;20020;-64
2023/04/27 08:15:35;;;;;;;0.20;0.20;;;;;;;12.90;53.09;101327.25;5066798;28;20028;-66
2023/04/27 08:18:00;;;;;;;1.65;0.30;;;;;;;12.77;53.81;101323.09;5071129;28;20039;-66
2023/04/27 08:20:26;;;;;;;0.80;0.30;;;;;;;13.09;54.17;101317.28;5052289;28;20028;-65
2023/04/27 08:22:51;;;;;;;0.20;0.20;;;;;;;13.49;52.98;101341.28;5074924;28;20036;-64
2023/04/27 08:25:17;;;;;;;0.35;0.35;;;;;;;13.77;52.07;101336.41;5071034;28;20388;-64
2023/04/27 08:27:42;;;;;;;0.95;0.30;;;;;;;13.70;52.25;101325.44;5069138;28;20508;-65
2023/04/27 08:30:08;;;;;;;0.30;0.30;;;;;;;13.97;52.08;101320.91;5070000;28;20484;-64
2023/04/27 08:32:34;;;;;;;0.70;0.60;;;;;;;14.38;51.73;101330.91;5069954;28;20079;-66
2023/04/27 08:34:59;;;;;;;0.40;0.40;;;;;;;14.68;49.84;101334.47;5069604;28;20032;-65
2023/04/27 08:37:25;;;;;;;0.20;0.20;;;;;;;14.66;49.51;101319.69;5051571;28;20436;-66
2023/04/27 08:39:50;;;;;;;0.75;0.35;;;;;;;14.61;49.33;101320.03;5068343;28;20030;-64
2023/04/27 08:42:15;;;;;;;0.45;0.25;;;;;;;14.67;50.25;101321.28;5050731;28;20036;-66
2023/04/27 08:44:42;;;;;;;0.30;0.20;;;;;;;14.85;50.30;101319.56;5074996;28;20551;-66
2023/04/27 08:47:08;;;;;;;0.57;0.20;;;;;;;15.12;52.13;101321.09;5073717;28;20128;-65
2023/04/27 08:49:37;;;;;;;0.20;0.10;;;;;;;15.47;50.35;101305.25;5075825;28;20107;-64
2023/04/27 08:52:02;;;;;;;1.25;0.35;;;;;;;15.47;47.61;101309.91;5074856;28;20055;-65
2023/04/27 08:54:28;;;;;;;0.30;0.30;;;;;;;15.49;47.32;101305.69;5068969;28;20045;-64
2023/04/27 08:56:53;;;;;;;0.20;0.20;;;;;;;15.42;46.48;101307.53;5052228;28;20112;-65
2023/04/27 08:59:18;;;;;;;0.70;0.28;;;;;;;15.18;46.58;101300.63;5080985;28;20097;-65
2023/04/27 09:01:47;;;;;;;3.72;0.45;;;;;;;15.19;46.39;101300.25;5069765;28;20032;-64
2023/04/27 09:04:12;;;;;;;0.30;0.10;;;;;;;14.69;47.02;101310.84;5073688;28;20107;-65
2023/04/27 09:06:38;;;;;;;0.30;0.30;;;;;;;14.59;47.80;101311.47;5067122;28;20136;-65
2023/04/27 09:09:05;;;;;;;0.55;0.38;;;;;;;14.31;48.34;101311.81;5074522;28;20649;-65
2023/04/27 09:11:32;;;;;;;0.32;0.30;;;;;;;14.12;47.91;101311.84;5068193;28;20056;-64
2023/04/27 09:14:02;;;;;;;0.40;0.30;;;;;;;13.84;48.51;101314.09;5069366;28;20039;-63
2023/04/27 09:16:29;;;;;;;0.30;0.30;;;;;;;13.81;49.23;101304.75;5075550;28;20070;-65
2023/04/27 09:18:56;;;;;;;0.20;0.20;;;;;;;13.91;48.92;101309.59;5077992;28;20032;-65
2023/04/27 09:21:26;;;;;;;2.47;0.50;;;;;;;14.09;47.91;101315.31;5074571;28;20035;-64
2023/04/27 09:23:52;;;;;;;0.52;0.32;;;;;;;14.25;47.66;101296.97;5076932;28;20032;-66
2023/04/27 09:26:23;;;;;;;0.50;0.40;;;;;;;14.44;46.97;101302.31;5085234;28;20025;-65
2023/04/27 09:28:51;;;;;;;2.72;1.05;;;;;;;14.67;45.67;101315.84;5064874;28;20031;-65
2023/04/27 09:31:17;;;;;;;0.15;0.05;;;;;;;14.65;46.77;101304.59;5082070;28;20501;-65
2023/04/27 09:33:44;;;;;;;0.20;0.20;;;;;;;14.71;47.40;101301.19;5087352;28;20126;-65
2023/04/27 09:36:10;;;;;;;1.15;0.45;;;;;;;14.73;47.28;101307.00;5074443;28;20020;-66
2023/04/27 09:38:35;;;;;;;0.20;0.20;;;;;;;14.86;45.25;101308.38;5063442;28;20020;-65
2023/04/27 09:41:01;;;;;;;0.20;0.20;;;;;;;14.60;45.49;101305.66;5080791;28;20495;-65
2023/04/27 09:43:27;;;;;;;0.25;0.25;;;;;;;14.33;46.21;101310.31;5086606;28;20024;-65
2023/04/27 09:45:57;;;;;;;0.63;0.50;;;;;;;14.26;46.27;101303.97;5072545;28;20035;-64
2023/04/27 09:48:23;;;;;;;0.60;0.38;;;;;;;14.17;46.91;101306.13;5052524;28;20074;-65
2023/04/27 09:50:51;;;;;;;0.40;0.40;;;;;;;14.05;48.33;101298.97;5040212;28;20130;-65
2023/04/27 09:53:19;;;;;;;0.30;0.25;;;;;;;14.10;46.27;101298.69;5081772;28;20024;-65
2023/04/27 09:56:06;;;;;;;1.10;0.52;;;;;;;14.60;44.93;101294.03;5078786;28;20028;-66
2023/04/27 09:59:08;;;;;;;0.73;0.28;;;;;;;14.99;42.99;101292.66;5079069;28;20132;-64
2023/04/27 10:01:44;;;;;;;0.10;0.10;;;;;;;15.58;42.74;101297.25;5059477;28;20059;-64
2023/04/27 10:04:28;;;;;;;0.15;0.15;;;;;;;16.11;42.09;101283.00;5080956;28;20062;-65
2023/04/27 10:07:07;;;;;;;1.75;0.30;;;;;;;16.44;41.50;101286.72;5086134;28;20614;-65
2023/04/27 10:09:42;;;;;;;0.75;0.35;;;;;;;16.76;41.12;101279.56;5081305;28;20058;-65
2023/04/27 10:12:27;;;;;;;0.15;0.15;;;;;;;16.96;41.51;101283.53;5063439;28;20044;-65
2023/04/27 10:14:54;;;;;;;1.17;0.40;;;;;;;17.02;40.53;101292.91;5080959;28;20032;-66
2023/04/27 10:17:31;;;;;;;0.28;0.28;;;;;;;16.81;41.65;101290.88;5068643;28;20025;-65
2023/04/27 10:20:02;;;;;;;0.40;0.30;;;;;;;16.46;41.19;101295.28;5062171;28;20036;-67
2023/04/27 10:22:44;;;;;;;;;;;;;;;15.97;41.99;101287.50;5073634;28;20043;-67
2023/04/27 10:25:22;;;;;;;0.20;0.20;;;;;;;15.88;41.89;101290.56;5083999;28;19923;-65
2023/04/27 10:27:54;;;;;;;0.30;0.30;;;;;;;15.58;43.11;101287.16;5080616;28;20035;-66
2023/04/27 10:30:22;;;;;;;0.35;0.35;;;;;;;15.57;42.06;101279.38;5066166;28;20028;-64
2023/04/27 10:32:55;;;;;;;0.20;0.17;;;;;;;15.48;43.24;101276.97;5064713;28;20368;-66
2023/04/27 10:35:43;;;;;;;0.82;0.75;;;;;;;15.47;44.00;101271.91;5064126;28;20080;-64
2023/04/27 10:38:16;;;;;;;0.43;0.40;;;;;;;15.77;43.02;101286.19;5057140;28;20040;-65
2023/04/27 10:41:04;;;;;;;0.30;0.28;;;;;;;16.23;42.32;101273.75;5063012;28;20035;-65
2023/04/27 10:43:34;;;;;;;0.22;0.22;;;;;;;16.42;40.63;101284.38;5079188;28;20543;-65
2023/04/27 10:46:13;;;;;;;0.75;0.45;;;;;;;16.50;40.83;101286.03;5070803;28;20090;-65
2023/04/27 10:48:40;;;;;;;0.00;0.00;;;;;;;16.50;40.21;101296.09;5085998;28;20031;-66
2023/04/27 10:51:06;;;;;;;0.30;0.22;;;;;;;16.51;40.25;101301.16;5086086;28;20024;-65
2023/04/27 10:53:35;;;;;;;0.40;0.40;;;;;;;16.40;39.98;101305.72;5087223;28;20111;-65
2023/04/27 10:56:02;;;;;;;1.55;0.85;;;;;;;16.68;39.26;101297.78;5089089;28;20035;-64
2023/04/27 10:58:28;;;;;;;0.20;0.20;;;;;;;16.61;40.39;101295.00;5052521;28;20056;-66
2023/04/27 11:00:53;;;;;;;0.32;0.25;;;;;;;16.53;40.58;101298.09;5085033;28;20068;-65
2023/04/27 11:03:22;;;;;;;0.30;0.30;;;;;;;16.51;40.32;101298.44;5083562;28;20037;-63
2023/04/27 11:05:57;;;;;;;0.85;0.50;;;;;;;16.42;40.17;101297.19;5073046;28;20115;-65
2023/04/27 11:08:23;;;;;;;0.35;0.25;;;;;;;15.96;40.47;101286.75;5062411;28;20043;-65
2023/04/27 11:10:50;;;;;;;0.13;0.13;;;;;;;16.01;40.72;101296.47;5078203;28;20016;-62
2023/04/27 11:13:21;;;;;;;0.30;0.10;;;;;;;15.88;41.54;101293.28;5062403;28;20037;-65
2023/04/27 11:15:51;;;;;;;0.50;0.40;;;;;;;15.81;42.40;101290.50;5071366;28;20108;-65
2023/04/27 11:18:18;;;;;;;0.55;0.28;;;;;;;15.60;41.92;101300.38;5080443;28;20085;-65
2023/04/27 11:20:47;;;;;;;0.10;0.10;;;;;;;15.73;42.31;101299.72;5088359;28;20538;-64
2023/04/27 11:23:26;;;;;;;0.65;0.20;;;;;;;15.63;41.78;101297.69;5071579;28;20036;-65
2023/04/27 11:25:52;;;;;;;0.22;0.17;;;;;;;15.70;41.04;101305.91;5071420;28;20036;-65
2023/04/27 11:28:21;;;;;;;0.15;0.10;;;;;;;15.61;40.78;101304.63;5071333;28;20028;-64